• Join FlightAware (Why Join?)
  • Login
  • US Flag 
09:36AM EDT


 

Airport Tracker/Info


-or-


 

Live Flight TrackerFlight Track Log ✈ N8317F ✈ 29-Dec-2013 ✈ KACY - KFRG

Flight Track Log - Related Links

Times and Time Zones

All times are in EST time to prevent confusion due to time zone crossing. See the N8317F flight status page for this flight to view local times or setup timezone preferences in your user account.

Time Position Orientation Groundspeed Altitude Reporting Facility
EST Latitude Longitude Course Direction KTS MPH feet Rate Location/Type
11:13PM 39.6256 -74.4264 34° Northeast  Level Estimated
11:14PM 39.6596 -74.4247 North  Level FlightAware Approximate
11:15PM 39.6873 -74.3990 35° Northeast  Level Estimated
11:16PM 39.7193 -74.3838 20° North  Level FlightAware Approximate
11:17PM 39.7513 -74.3686 20° North  Level FlightAware Approximate
11:18PM 39.7833 -74.3534 20° North  Level FlightAware Approximate
11:19PM 39.8153 -74.3382 20° North  Level FlightAware Approximate
11:20PM 39.8473 -74.3230 20° North  Level FlightAware Approximate
11:21PM 39.8792 -74.3077 20° North  Level FlightAware Approximate
11:22PM 39.9059 -74.2801 43° Northeast  Level Estimated
11:23PM 39.9356 -74.2584 29° Northeast  Level FlightAware Approximate
11:24PM 39.9653 -74.2366 29° Northeast  Level FlightAware Approximate
11:25PM 39.9917 -74.2086 21° North  Level Estimated
11:26PM 40.0230 -74.1909 23° Northeast  Level FlightAware Approximate
11:27PM 40.0542 -74.1732 23° Northeast  Level FlightAware Approximate
11:28PM 40.0802 -74.1444 49° Northeast  Level Estimated
11:29PM 40.1103 -74.1236 28° Northeast  Level FlightAware Approximate
11:30PM 40.1360 -74.0944 28° Northeast  Level Estimated
11:31PM 40.1662 -74.0740 27° Northeast  Level FlightAware Approximate
11:32PM 40.1965 -74.0535 27° Northeast  Level FlightAware Approximate
11:33PM 40.2267 -74.0330 27° Northeast  Level FlightAware Approximate
11:34PM 40.2570 -74.0125 27° Northeast  Level FlightAware Approximate
11:35PM 40.2872 -73.9919 27° Northeast  Level FlightAware Approximate
11:35PM 40.1833 -74.1000 27° Northeast 123 142 5,000  Level New York TRACON
11:36PM 40.3174 -73.9714 27° Northeast  Level FlightAware Approximate
11:36PM 40.2167 -74.0667 37° Northeast 123 142 5,000  Level New York TRACON
11:37PM 40.3476 -73.9508 27° Northeast  Level FlightAware Approximate
11:37PM 40.2500 -74.0500 21° North 122 140 5,000  Level New York TRACON
11:38PM 40.3778 -73.9302 27° Northeast  Level FlightAware Approximate
11:38PM 40.2833 -74.0333 21° North 114 131 5,000  Level New York TRACON
11:39PM 40.4081 -73.9096 27° Northeast  Level FlightAware Approximate
11:39PM 40.3000 -74.0167 37° Northeast 115 132 5,000  Level New York TRACON
11:40PM 40.4383 -73.8889 27° Northeast  Level FlightAware Approximate
11:40PM 40.3333 -74.0000 21° North 118 136 5,000  Level New York TRACON
11:41PM 40.3667 -73.9667 37° Northeast 135 155 4,500 -540 Descending New York TRACON
11:42PM 40.4000 -73.9500 21° North 131 151 4,000 -240 Descending New York TRACON
11:43PM 40.4333 -73.9333 21° North 116 133 4,100 -300 Climbing New York TRACON
11:45PM 40.5000 -73.8833 30° Northeast 138 159 3,100 -360 Descending New York TRACON
11:46PM 40.5167 -73.8500 57° Northeast 139 160 3,100  Level New York TRACON
11:47PM 40.5333 -73.8000 66° East 150 173 3,100  Level New York TRACON
11:48PM 40.5500 -73.7500 66° East 145 167 3,100  Level New York TRACON
11:49PM 40.5667 -73.7000 66° East 141 162 3,100  Level New York TRACON
11:50PM 40.5833 -73.6500 66° East 144 166 3,100  Level New York TRACON
11:51PM 40.6000 -73.6167 57° Northeast 133 153 3,100 -300 Level New York TRACON
11:52PM 40.6333 -73.5667 49° Northeast 140 161 2,500 -600 Descending New York TRACON
11:53PM 40.6500 -73.5333 57° Northeast 149 171 2,000 -300 Descending New York TRACON
11:54PM 40.6833 -73.5000 37° Northeast 128 147 2,000  Level New York TRACON
11:55PM 40.7000 -73.4500 66° East 136 157 2,000 -120 Level New York TRACON
11:56PM 40.7000 -73.4000 90° East 135 155 1,800 -420 Descending New York TRACON
11:57PM 40.7167 -73.3667 57° Northeast 121 139 1,200 -420 Descending New York TRACON
11:58PM 40.7167 -73.3833 270° West 77 89 1,000 -120 Descending New York TRACON
11:59PM 40.7333 -73.4167 303° West 91 105 1,000 60 Level New York TRACON
12:00AM 40.7333 -73.4333 270° West 95 109 1,200  Climbing New York TRACON
12:01AM 40.7000 -73.4167 159° South 136 157 1,000 -300 Descending New York TRACON
12:02AM 40.7000 -73.3833 90° East 95 109 700 -360 Descending New York TRACON
12:03AM 40.7167 -73.4000 323° Northwest 75 86 400 -360 Descending New York TRACON